sensor_id;sensor_type;location;lat;lon;timestamp;pressure;altitude;pressure_sealevel;temperature;humidity
36798;BME280;22748;8.426;99.512;2022-08-03T00:01:45;100564.31;;;28.32;69.84
36798;BME280;22748;8.426;99.512;2022-08-03T00:04:15;100563.50;;;28.31;70.22
36798;BME280;22748;8.426;99.512;2022-08-03T00:06:47;100570.50;;;28.33;69.99
36798;BME280;22748;8.426;99.512;2022-08-03T00:09:20;100570.50;;;28.33;70.10
36798;BME280;22748;8.426;99.512;2022-08-03T00:11:51;100581.25;;;28.33;70.12
36798;BME280;22748;8.426;99.512;2022-08-03T00:14:23;100595.53;;;28.33;70.34
36798;BME280;22748;8.426;99.512;2022-08-03T00:16:54;100595.53;;;28.33;70.53
36798;BME280;22748;8.426;99.512;2022-08-03T00:19:24;100598.22;;;28.33;70.37
36798;BME280;22748;8.426;99.512;2022-08-03T00:21:56;100608.09;;;28.33;70.64
36798;BME280;22748;8.426;99.512;2022-08-03T00:24:27;100609.97;;;28.32;70.68
36798;BME280;22748;8.426;99.512;2022-08-03T00:26:59;100616.78;;;28.35;70.72
36798;BME280;22748;8.426;99.512;2022-08-03T00:29:29;100618.03;;;28.32;70.56
36798;BME280;22748;8.426;99.512;2022-08-03T00:32:00;100621.78;;;28.31;70.55
36798;BME280;22748;8.426;99.512;2022-08-03T00:34:30;100615.16;;;28.34;70.95
36798;BME280;22748;8.426;99.512;2022-08-03T00:37:00;100620.09;;;28.37;70.80
36798;BME280;22748;8.426;99.512;2022-08-03T00:39:32;100618.22;;;28.37;70.87
36798;BME280;22748;8.426;99.512;2022-08-03T00:42:04;100615.34;;;28.39;70.75
36798;BME280;22748;8.426;99.512;2022-08-03T00:44:39;100615.53;;;28.37;70.94
36798;BME280;22748;8.426;99.512;2022-08-03T00:47:11;100620.53;;;28.27;71.24
36798;BME280;22748;8.426;99.512;2022-08-03T00:49:42;100620.53;;;28.27;71.27
36798;BME280;22748;8.426;99.512;2022-08-03T00:52:13;100622.78;;;28.30;70.89
36798;BME280;22748;8.426;99.512;2022-08-03T00:54:47;100621.34;;;28.34;71.30
36798;BME280;22748;8.426;99.512;2022-08-03T00:57:17;100623.84;;;28.36;71.44
36798;BME280;22748;8.426;99.512;2022-08-03T00:59:48;100619.91;;;28.38;71.16
36798;BME280;22748;8.426;99.512;2022-08-03T01:02:19;100626.72;;;28.41;71.41
36798;BME280;22748;8.426;99.512;2022-08-03T01:04:49;100632.50;;;28.44;71.53
36798;BME280;22748;8.426;99.512;2022-08-03T01:07:25;100634.97;;;28.39;71.51
36798;BME280;22748;8.426;99.512;2022-08-03T01:10:03;100643.66;;;28.41;71.40
36798;BME280;22748;8.426;99.512;2022-08-03T01:12:47;100648.63;;;28.44;71.79
36798;BME280;22748;8.426;99.512;2022-08-03T01:15:26;100653.59;;;28.47;71.43
36798;BME280;22748;8.426;99.512;2022-08-03T01:18:02;100657.13;;;28.55;71.93
36798;BME280;22748;8.426;99.512;2022-08-03T01:20:35;100659.00;;;28.61;71.49
36798;BME280;22748;8.426;99.512;2022-08-03T01:23:26;100659.22;;;28.66;71.43
36798;BME280;22748;8.426;99.512;2022-08-03T01:26:14;100670.97;;;28.71;71.56
36798;BME280;22748;8.426;99.512;2022-08-03T01:29:03;100667.28;;;28.79;71.39
36798;BME280;22748;8.426;99.512;2022-08-03T01:31:44;100672.22;;;28.89;70.81
36798;BME280;22748;8.426;99.512;2022-08-03T01:34:20;100676.13;;;28.93;70.47
36798;BME280;22748;8.426;99.512;2022-08-03T01:36:53;100670.56;;;28.95;70.73
36798;BME280;22748;8.426;99.512;2022-08-03T01:39:28;100660.63;;;28.95;70.19
36798;BME280;22748;8.426;99.512;2022-08-03T01:42:05;100663.13;;;28.97;70.31
36798;BME280;22748;8.426;99.512;2022-08-03T01:44:37;100666.00;;;29.02;70.53
36798;BME280;22748;8.426;99.512;2022-08-03T01:47:11;100672.63;;;29.06;70.64
36798;BME280;22748;8.426;99.512;2022-08-03T01:49:44;100666.19;;;29.07;70.14
36798;BME280;22748;8.426;99.512;2022-08-03T01:52:17;100665.16;;;29.08;70.57
36798;BME280;22748;8.426;99.512;2022-08-03T01:54:51;100676.56;;;29.10;70.25
36798;BME280;22748;8.426;99.512;2022-08-03T01:57:22;100682.97;;;29.09;70.26
36798;BME280;22748;8.426;99.512;2022-08-03T01:59:53;100680.69;;;29.06;70.25
36798;BME280;22748;8.426;99.512;2022-08-03T02:02:27;100687.50;;;29.08;70.52
36798;BME280;22748;8.426;99.512;2022-08-03T02:05:02;100699.50;;;28.99;70.93
36798;BME280;22748;8.426;99.512;2022-08-03T02:07:36;100695.38;;;29.03;70.89
36798;BME280;22748;8.426;99.512;2022-08-03T02:10:08;100703.63;;;29.02;71.05
36798;BME280;22748;8.426;99.512;2022-08-03T02:12:43;100712.31;;;29.04;70.10
36798;BME280;22748;8.426;99.512;2022-08-03T02:15:16;100706.16;;;29.10;70.26
36798;BME280;22748;8.426;99.512;2022-08-03T02:17:51;100701.16;;;29.13;70.00
36798;BME280;22748;8.426;99.512;2022-08-03T02:20:23;100705.94;;;29.18;69.32
36798;BME280;22748;8.426;99.512;2022-08-03T02:22:55;100703.44;;;29.23;69.14
36798;BME280;22748;8.426;99.512;2022-08-03T02:25:26;100709.44;;;29.25;69.24
36798;BME280;22748;8.426;99.512;2022-08-03T02:28:05;100710.88;;;29.28;68.96
36798;BME280;22748;8.426;99.512;2022-08-03T02:30:39;100711.50;;;29.30;69.17
36798;BME280;22748;8.426;99.512;2022-08-03T02:33:20;100726.38;;;29.32;69.53
36798;BME280;22748;8.426;99.512;2022-08-03T02:35:54;100721.81;;;29.33;69.22
36798;BME280;22748;8.426;99.512;2022-08-03T02:38:32;100732.38;;;29.35;69.03
36798;BME280;22748;8.426;99.512;2022-08-03T02:41:06;100720.59;;;29.36;68.85
36798;BME280;22748;8.426;99.512;2022-08-03T02:43:40;100725.97;;;29.36;68.78
36798;BME280;22748;8.426;99.512;2022-08-03T02:46:13;100719.34;;;29.38;68.48
36798;BME280;22748;8.426;99.512;2022-08-03T02:48:51;100728.25;;;29.39;68.61
36798;BME280;22748;8.426;99.512;2022-08-03T02:51:22;100723.47;;;29.41;68.12
36798;BME280;22748;8.426;99.512;2022-08-03T02:53:55;100723.03;;;29.44;68.01
36798;BME280;22748;8.426;99.512;2022-08-03T02:56:28;100727.41;;;29.38;68.11
36798;BME280;22748;8.426;99.512;2022-08-03T02:59:01;100730.94;;;29.39;68.09
36798;BME280;22748;8.426;99.512;2022-08-03T03:01:33;100727.59;;;29.43;67.80
36798;BME280;22748;8.426;99.512;2022-08-03T03:04:07;100720.34;;;29.44;67.54
36798;BME280;22748;8.426;99.512;2022-08-03T03:06:42;100717.25;;;29.47;67.74
36798;BME280;22748;8.426;99.512;2022-08-03T03:09:14;100725.50;;;29.52;67.80
36798;BME280;22748;8.426;99.512;2022-08-03T03:11:44;100721.97;;;29.58;67.30
36798;BME280;22748;8.426;99.512;2022-08-03T03:14:16;100712.84;;;29.59;67.72
36798;BME280;22748;8.426;99.512;2022-08-03T03:16:47;100708.31;;;29.60;66.41
36798;BME280;22748;8.426;99.512;2022-08-03T03:19:21;100704.16;;;29.57;66.95
36798;BME280;22748;8.426;99.512;2022-08-03T03:21:53;100700.63;;;29.63;66.77
36798;BME280;22748;8.426;99.512;2022-08-03T03:24:26;100692.75;;;29.68;66.40
36798;BME280;22748;8.426;99.512;2022-08-03T03:26:57;100691.53;;;29.71;66.90
36798;BME280;22748;8.426;99.512;2022-08-03T03:29:30;100686.97;;;29.71;67.04
36798;BME280;22748;8.426;99.512;2022-08-03T03:32:01;100696.72;;;29.72;67.20
36798;BME280;22748;8.426;99.512;2022-08-03T03:34:35;100692.78;;;29.75;66.68
36798;BME280;22748;8.426;99.512;2022-08-03T03:37:06;100699.41;;;29.72;65.99
36798;BME280;22748;8.426;99.512;2022-08-03T03:39:38;100705.19;;;29.76;66.69
36798;BME280;22748;8.426;99.512;2022-08-03T03:42:09;100709.75;;;29.76;66.31
36798;BME280;22748;8.426;99.512;2022-08-03T03:44:40;100710.97;;;29.80;66.66
36798;BME280;22748;8.426;99.512;2022-08-03T03:47:12;100707.84;;;29.83;66.53
36798;BME280;22748;8.426;99.512;2022-08-03T03:49:45;100708.44;;;29.85;66.13
36798;BME280;22748;8.426;99.512;2022-08-03T03:52:16;100709.88;;;29.87;65.68
36798;BME280;22748;8.426;99.512;2022-08-03T03:54:46;100708.66;;;29.90;65.57
36798;BME280;22748;8.426;99.512;2022-08-03T03:57:17;100714.03;;;29.90;64.88
36798;BME280;22748;8.426;99.512;2022-08-03T03:59:48;100711.94;;;29.92;64.83
36798;BME280;22748;8.426;99.512;2022-08-03T04:02:20;100700.97;;;29.93;65.14
36798;BME280;22748;8.426;99.512;2022-08-03T04:07:57;100692.69;;;29.95;64.69
36798;BME280;22748;8.426;99.512;2022-08-03T04:10:45;100688.50;;;29.99;65.23
36798;BME280;22748;8.426;99.512;2022-08-03T04:13:33;100665.91;;;30.00;65.62
36798;BME280;22748;8.426;99.512;2022-08-03T04:16:05;100676.88;;;30.05;65.83
36798;BME280;22748;8.426;99.512;2022-08-03T04:18:39;100689.75;;;30.03;65.92
36798;BME280;22748;8.426;99.512;2022-08-03T04:21:14;100725.59;;;29.97;66.32
36798;BME280;22748;8.426;99.512;2022-08-03T04:23:49;100731.84;;;29.91;64.22
36798;BME280;22748;8.426;99.512;2022-08-03T04:26:22;100737.69;;;29.74;63.66
36798;BME280;22748;8.426;99.512;2022-08-03T04:28:53;100733.38;;;29.60;64.63
36798;BME280;22748;8.426;99.512;2022-08-03T04:31:25;100749.72;;;29.52;65.98
36798;BME280;22748;8.426;99.512;2022-08-03T04:33:59;100747.47;;;29.49;65.85
36798;BME280;22748;8.426;99.512;2022-08-03T04:36:32;100739.19;;;29.44;66.31
36798;BME280;22748;8.426;99.512;2022-08-03T04:39:09;100741.69;;;29.39;66.61
36798;BME280;22748;8.426;99.512;2022-08-03T04:41:44;100742.13;;;29.36;67.36
36798;BME280;22748;8.426;99.512;2022-08-03T04:44:15;100751.22;;;29.35;66.60
36798;BME280;22748;8.426;99.512;2022-08-03T04:46:46;100754.97;;;29.27;66.32
36798;BME280;22748;8.426;99.512;2022-08-03T04:49:17;100754.53;;;29.23;66.70
36798;BME280;22748;8.426;99.512;2022-08-03T04:51:50;100762.81;;;29.15;66.81
36798;BME280;22748;8.426;99.512;2022-08-03T04:54:22;100752.22;;;29.07;66.64
36798;BME280;22748;8.426;99.512;2022-08-03T04:56:52;100739.41;;;29.02;66.92
36798;BME280;22748;8.426;99.512;2022-08-03T04:59:25;100739.63;;;29.01;67.07
36798;BME280;22748;8.426;99.512;2022-08-03T05:01:59;100728.47;;;28.90;67.17
36798;BME280;22748;8.426;99.512;2022-08-03T05:04:30;100723.91;;;28.84;67.05
36798;BME280;22748;8.426;99.512;2022-08-03T05:07:03;100722.66;;;28.74;67.25
36798;BME280;22748;8.426;99.512;2022-08-03T05:09:34;100725.16;;;28.75;67.56
36798;BME280;22748;8.426;99.512;2022-08-03T05:12:06;100719.53;;;28.57;67.48
36798;BME280;22748;8.426;99.512;2022-08-03T05:14:38;100715.22;;;28.56;67.83
36798;BME280;22748;8.426;99.512;2022-08-03T05:17:10;100714.53;;;28.40;67.47
36798;BME280;22748;8.426;99.512;2022-08-03T05:19:41;100717.00;;;28.35;67.84
36798;BME280;22748;8.426;99.512;2022-08-03T05:22:14;100709.72;;;28.16;67.80
36798;BME280;22748;8.426;99.512;2022-08-03T05:24:45;100710.53;;;28.09;67.87
36798;BME280;22748;8.426;99.512;2022-08-03T05:27:15;100707.25;;;28.14;67.77
36798;BME280;22748;8.426;99.512;2022-08-03T05:29:47;100697.50;;;28.06;67.35
36798;BME280;22748;8.426;99.512;2022-08-03T05:32:16;100696.31;;;27.74;67.99
36798;BME280;22748;8.426;99.512;2022-08-03T05:34:46;100689.56;;;27.85;68.03
36798;BME280;22748;8.426;99.512;2022-08-03T05:37:18;100679.72;;;27.99;67.87
36798;BME280;22748;8.426;99.512;2022-08-03T05:39:49;100671.09;;;28.10;67.76
36798;BME280;22748;8.426;99.512;2022-08-03T05:42:19;100667.59;;;28.09;67.29
36798;BME280;22748;8.426;99.512;2022-08-03T05:44:50;100661.59;;;28.14;67.26
36798;BME280;22748;8.426;99.512;2022-08-03T05:47:20;100660.97;;;28.05;67.11
36798;BME280;22748;8.426;99.512;2022-08-03T05:49:51;100651.47;;;28.09;67.19
36798;BME280;22748;8.426;99.512;2022-08-03T05:52:22;100648.56;;;28.11;67.18
36798;BME280;22748;8.426;99.512;2022-08-03T05:54:54;100640.72;;;28.03;67.20
36798;BME280;22748;8.426;99.512;2022-08-03T05:57:24;100636.81;;;28.05;67.53
36798;BME280;22748;8.426;99.512;2022-08-03T05:59:54;100634.13;;;28.19;67.58
36798;BME280;22748;8.426;99.512;2022-08-03T06:02:25;100621.78;;;28.31;67.27
36798;BME280;22748;8.426;99.512;2022-08-03T06:04:55;100618.22;;;28.37;67.43
36798;BME280;22748;8.426;99.512;2022-08-03T06:07:27;100606.47;;;28.38;67.34
36798;BME280;22748;8.426;99.512;2022-08-03T06:09:57;100607.72;;;28.42;67.28
36798;BME280;22748;8.426;99.512;2022-08-03T06:12:28;100604.88;;;28.50;67.56
36798;BME280;22748;8.426;99.512;2022-08-03T06:15:05;100608.16;;;28.59;67.51
36798;BME280;22748;8.426;99.512;2022-08-03T06:17:45;100599.47;;;28.64;67.89
36798;BME280;22748;8.426;99.512;2022-08-03T06:20:18;100592.03;;;28.73;67.41
36798;BME280;22748;8.426;99.512;2022-08-03T06:22:54;100601.94;;;28.72;67.91
36798;BME280;22748;8.426;99.512;2022-08-03T06:25:24;100594.09;;;28.77;68.06
36798;BME280;22748;8.426;99.512;2022-08-03T06:27:55;100588.28;;;28.80;67.72
36798;BME280;22748;8.426;99.512;2022-08-03T06:30:26;100577.53;;;28.80;67.95
36798;BME280;22748;8.426;99.512;2022-08-03T06:32:57;100580.81;;;28.89;67.37
36798;BME280;22748;8.426;99.512;2022-08-03T06:35:28;100575.03;;;28.92;67.01
36798;BME280;22748;8.426;99.512;2022-08-03T06:37:59;100572.13;;;28.93;66.95
36798;BME280;22748;8.426;99.512;2022-08-03T06:40:34;100575.22;;;28.97;67.09
36798;BME280;22748;8.426;99.512;2022-08-03T06:43:08;100567.56;;;29.01;66.54
36798;BME280;22748;8.426;99.512;2022-08-03T06:45:41;100559.28;;;29.02;66.93
36798;BME280;22748;8.426;99.512;2022-08-03T06:48:14;100557.19;;;29.04;66.59
36798;BME280;22748;8.426;99.512;2022-08-03T06:50:44;100560.31;;;29.08;67.25
36798;BME280;22748;8.426;99.512;2022-08-03T06:53:17;100554.91;;;29.08;67.20
36798;BME280;22748;8.426;99.512;2022-08-03T06:55:49;100546.25;;;29.06;67.61
36798;BME280;22748;8.426;99.512;2022-08-03T06:58:19;100543.16;;;29.09;67.79
36798;BME280;22748;8.426;99.512;2022-08-03T07:00:51;100542.09;;;29.17;67.83
36798;BME280;22748;8.426;99.512;2022-08-03T07:03:26;100533.19;;;29.23;67.52
36798;BME280;22748;8.426;99.512;2022-08-03T07:05:57;100528.63;;;29.23;67.38
36798;BME280;22748;8.426;99.512;2022-08-03T07:08:28;100531.31;;;29.23;67.24
36798;BME280;22748;8.426;99.512;2022-08-03T07:10:58;100526.72;;;29.30;67.23
36798;BME280;22748;8.426;99.512;2022-08-03T07:13:29;100529.59;;;29.36;67.92
36798;BME280;22748;8.426;99.512;2022-08-03T07:16:00;100519.47;;;29.38;67.78
36798;BME280;22748;8.426;99.512;2022-08-03T07:18:29;100513.47;;;29.36;66.70
36798;BME280;22748;8.426;99.512;2022-08-03T07:21:01;100504.94;;;29.39;66.14
36798;BME280;22748;8.426;99.512;2022-08-03T07:23:33;100495.91;;;29.26;66.38
36798;BME280;22748;8.426;99.512;2022-08-03T07:26:03;100503.34;;;29.24;65.91
36798;BME280;22748;8.426;99.512;2022-08-03T07:28:35;100497.56;;;29.27;65.06
36798;BME280;22748;8.426;99.512;2022-08-03T07:31:06;100501.25;;;29.33;65.43
36798;BME280;22748;8.426;99.512;2022-08-03T07:33:36;100501.25;;;29.33;64.04
36798;BME280;22748;8.426;99.512;2022-08-03T07:36:06;100497.53;;;29.34;63.39
36798;BME280;22748;8.426;99.512;2022-08-03T07:38:39;100495.47;;;29.36;63.99
36798;BME280;22748;8.426;99.512;2022-08-03T07:41:09;100504.50;;;29.42;63.88
36798;BME280;22748;8.426;99.512;2022-08-03T07:43:41;100491.00;;;29.48;64.45
36798;BME280;22748;8.426;99.512;2022-08-03T07:46:11;100485.00;;;29.53;64.54
36798;BME280;22748;8.426;99.512;2022-08-03T07:48:41;100488.91;;;29.57;63.17
36798;BME280;22748;8.426;99.512;2022-08-03T07:51:12;100488.28;;;29.62;63.22
36798;BME280;22748;8.426;99.512;2022-08-03T07:53:44;100490.72;;;29.63;62.98
36798;BME280;22748;8.426;99.512;2022-08-03T07:56:14;100483.03;;;29.67;63.55
36798;BME280;22748;8.426;99.512;2022-08-03T07:58:44;100481.16;;;29.67;63.68
36798;BME280;22748;8.426;99.512;2022-08-03T08:01:14;100470.03;;;29.70;60.95
36798;BME280;22748;8.426;99.512;2022-08-03T08:03:46;100472.06;;;29.68;61.34
36798;BME280;22748;8.426;99.512;2022-08-03T08:06:17;100471.03;;;29.69;61.50
36798;BME280;22748;8.426;99.512;2022-08-03T08:08:49;100468.75;;;29.73;61.69
36798;BME280;22748;8.426;99.512;2022-08-03T08:11:20;100462.09;;;29.76;61.25
36798;BME280;22748;8.426;99.512;2022-08-03T08:13:53;100455.66;;;29.77;61.17
36798;BME280;22748;8.426;99.512;2022-08-03T08:16:23;100454.41;;;29.79;61.74
36798;BME280;22748;8.426;99.512;2022-08-03T08:18:54;100450.47;;;29.82;61.21
36798;BME280;22748;8.426;99.512;2022-08-03T08:21:26;100452.91;;;29.83;60.90
36798;BME280;22748;8.426;99.512;2022-08-03T08:23:58;100442.53;;;29.87;61.00
36798;BME280;22748;8.426;99.512;2022-08-03T08:26:29;100440.44;;;29.89;61.59
36798;BME280;22748;8.426;99.512;2022-08-03T08:29:00;100442.13;;;29.90;61.53
36798;BME280;22748;8.426;99.512;2022-08-03T08:31:32;100446.22;;;29.92;62.01
36798;BME280;22748;8.426;99.512;2022-08-03T08:34:03;100456.75;;;29.94;61.51
36798;BME280;22748;8.426;99.512;2022-08-03T08:36:35;100457.38;;;29.96;60.94
36798;BME280;22748;8.426;99.512;2022-08-03T08:39:07;100456.94;;;29.99;61.45
36798;BME280;22748;8.426;99.512;2022-08-03T08:41:39;100460.25;;;30.01;61.42
36798;BME280;22748;8.426;99.512;2022-08-03T08:44:09;100466.22;;;30.03;61.37
36798;BME280;22748;8.426;99.512;2022-08-03T08:46:40;100461.44;;;30.05;61.40
36798;BME280;22748;8.426;99.512;2022-08-03T08:49:10;100463.09;;;30.06;61.06
36798;BME280;22748;8.426;99.512;2022-08-03T08:51:43;100459.13;;;30.09;61.59
36798;BME280;22748;8.426;99.512;2022-08-03T08:54:20;100459.94;;;30.09;61.51
36798;BME280;22748;8.426;99.512;2022-08-03T08:56:52;100452.25;;;30.13;61.22
36798;BME280;22748;8.426;99.512;2022-08-03T08:59:28;100443.97;;;30.14;61.70
36798;BME280;22748;8.426;99.512;2022-08-03T09:01:59;100437.75;;;30.14;62.11
36798;BME280;22748;8.426;99.512;2022-08-03T09:04:31;100437.50;;;30.15;61.40
36798;BME280;22748;8.426;99.512;2022-08-03T09:07:01;100428.63;;;30.15;60.98
36798;BME280;22748;8.426;99.512;2022-08-03T09:09:35;100421.34;;;30.15;61.01
36798;BME280;22748;8.426;99.512;2022-08-03T09:12:05;100413.28;;;30.15;61.37
36798;BME280;22748;8.426;99.512;2022-08-03T09:14:37;100403.78;;;30.13;61.06
36798;BME280;22748;8.426;99.512;2022-08-03T09:17:07;100402.50;;;30.15;61.19
36798;BME280;22748;8.426;99.512;2022-08-03T09:19:37;100402.06;;;30.19;60.96
36798;BME280;22748;8.426;99.512;2022-08-03T09:22:11;100405.13;;;30.22;62.05
36798;BME280;22748;8.426;99.512;2022-08-03T09:24:58;100412.38;;;30.22;61.68
36798;BME280;22748;8.426;99.512;2022-08-03T09:27:41;100418.44;;;30.17;61.44
36798;BME280;22748;8.426;99.512;2022-08-03T09:30:14;100416.34;;;30.19;61.44
36798;BME280;22748;8.426;99.512;2022-08-03T09:32:46;100423.63;;;30.19;61.81
36798;BME280;22748;8.426;99.512;2022-08-03T09:35:27;100427.13;;;30.19;62.40
36798;BME280;22748;8.426;99.512;2022-08-03T09:38:11;100414.31;;;30.14;61.76
36798;BME280;22748;8.426;99.512;2022-08-03T09:40:43;100413.66;;;30.19;60.91
36798;BME280;22748;8.426;99.512;2022-08-03T09:43:13;100415.69;;;30.24;61.43
36798;BME280;22748;8.426;99.512;2022-08-03T09:45:43;100408.19;;;30.26;61.18
36798;BME280;22748;8.426;99.512;2022-08-03T09:48:25;100417.03;;;30.14;61.14
36798;BME280;22748;8.426;99.512;2022-08-03T09:50:56;100424.81;;;30.23;61.28
36798;BME280;22748;8.426;99.512;2022-08-03T09:53:27;100421.25;;;30.29;61.05
36798;BME280;22748;8.426;99.512;2022-08-03T09:56:00;100426.81;;;30.34;61.32
36798;BME280;22748;8.426;99.512;2022-08-03T09:58:31;100420.94;;;30.37;60.74
36798;BME280;22748;8.426;99.512;2022-08-03T10:01:04;100413.47;;;30.39;60.73
36798;BME280;22748;8.426;99.512;2022-08-03T10:03:36;100414.66;;;30.43;60.42
36798;BME280;22748;8.426;99.512;2022-08-03T10:06:15;100399.31;;;30.44;60.92
36798;BME280;22748;8.426;99.512;2022-08-03T10:08:47;100417.50;;;30.48;60.85
36798;BME280;22748;8.426;99.512;2022-08-03T10:11:36;100410.03;;;30.50;61.00
36798;BME280;22748;8.426;99.512;2022-08-03T10:14:07;100402.53;;;30.52;61.44
36798;BME280;22748;8.426;99.512;2022-08-03T10:16:39;100398.81;;;30.53;60.70
36798;BME280;22748;8.426;99.512;2022-08-03T10:19:09;100404.78;;;30.55;60.89
36798;BME280;22748;8.426;99.512;2022-08-03T10:21:41;100408.75;;;30.53;60.96
36798;BME280;22748;8.426;99.512;2022-08-03T10:24:19;100405.41;;;30.58;61.40
36798;BME280;22748;8.426;99.512;2022-08-03T10:27:00;100405.81;;;30.54;61.30
36798;BME280;22748;8.426;99.512;2022-08-03T10:29:36;100407.50;;;30.55;61.28
36798;BME280;22748;8.426;99.512;2022-08-03T10:32:12;100398.34;;;30.57;61.65
36798;BME280;22748;8.426;99.512;2022-08-03T10:34:47;100403.00;;;30.49;61.11
36798;BME280;22748;8.426;99.512;2022-08-03T10:37:24;100393.63;;;30.52;60.59
36798;BME280;22748;8.426;99.512;2022-08-03T10:39:58;100392.94;;;30.57;60.65
36798;BME280;22748;8.426;99.512;2022-08-03T10:42:31;100396.09;;;30.53;60.97
36798;BME280;22748;8.426;99.512;2022-08-03T10:45:04;100400.44;;;30.54;60.27
36798;BME280;22748;8.426;99.512;2022-08-03T10:47:35;100398.94;;;30.59;60.52
36798;BME280;22748;8.426;99.512;2022-08-03T10:50:08;100395.78;;;30.62;60.93
36798;BME280;22748;8.426;99.512;2022-08-03T10:52:54;100403.44;;;30.65;60.94
36798;BME280;22748;8.426;99.512;2022-08-03T10:55:33;100407.75;;;30.66;61.41
36798;BME280;22748;8.426;99.512;2022-08-03T10:58:47;100414.00;;;30.66;61.50
36798;BME280;22748;8.426;99.512;2022-08-03T11:01:18;100421.84;;;30.68;62.03
36798;BME280;22748;8.426;99.512;2022-08-03T11:07:19;100416.19;;;30.58;61.80
36798;BME280;22748;8.426;99.512;2022-08-03T11:09:51;100418.28;;;30.55;62.41
36798;BME280;22748;8.426;99.512;2022-08-03T11:12:22;100419.31;;;30.54;62.55
36798;BME280;22748;8.426;99.512;2022-08-03T11:14:54;100423.94;;;30.47;62.97
36798;BME280;22748;8.426;99.512;2022-08-03T11:17:24;100423.13;;;30.47;63.33
36798;BME280;22748;8.426;99.512;2022-08-03T11:19:54;100434.28;;;30.50;63.32
36798;BME280;22748;8.426;99.512;2022-08-03T11:22:49;100439.44;;;30.52;63.37
36798;BME280;22748;8.426;99.512;2022-08-03T11:25:21;100446.03;;;30.56;63.13
36798;BME280;22748;8.426;99.512;2022-08-03T11:28:24;100441.47;;;30.57;63.35
36798;BME280;22748;8.426;99.512;2022-08-03T11:31:02;100442.66;;;30.61;63.72
36798;BME280;22748;8.426;99.512;2022-08-03T11:34:03;100444.28;;;30.62;63.38
36798;BME280;22748;8.426;99.512;2022-08-03T11:39:41;100445.56;;;30.59;63.94
36798;BME280;22748;8.426;99.512;2022-08-03T11:45:12;100453.06;;;30.57;64.39
36798;BME280;22748;8.426;99.512;2022-08-03T11:47:46;100462.00;;;30.58;64.87
36798;BME280;22748;8.426;99.512;2022-08-03T11:50:20;100464.69;;;30.58;64.69
36798;BME280;22748;8.426;99.512;2022-08-03T11:52:52;100475.47;;;30.58;65.06
36798;BME280;22748;8.426;99.512;2022-08-03T11:55:24;100475.47;;;30.58;64.67
36798;BME280;22748;8.426;99.512;2022-08-03T11:58:00;100485.41;;;30.57;65.09
36798;BME280;22748;8.426;99.512;2022-08-03T12:00:32;100480.84;;;30.58;65.54
36798;BME280;22748;8.426;99.512;2022-08-03T12:03:08;100485.41;;;30.57;65.56
36798;BME280;22748;8.426;99.512;2022-08-03T12:05:41;100486.25;;;30.58;65.85
36798;BME280;22748;8.426;99.512;2022-08-03T12:08:13;100495.38;;;30.57;66.02
36798;BME280;22748;8.426;99.512;2022-08-03T12:10:48;100495.38;;;30.57;66.27
36798;BME280;22748;8.426;99.512;2022-08-03T12:13:23;100500.75;;;30.57;66.41
36798;BME280;22748;8.426;99.512;2022-08-03T12:15:56;100513.19;;;30.58;66.22
36798;BME280;22748;8.426;99.512;2022-08-03T12:18:30;100515.28;;;30.55;66.60
36798;BME280;22748;8.426;99.512;2022-08-03T12:21:06;100525.00;;;30.57;66.20
36798;BME280;22748;8.426;99.512;2022-08-03T12:23:38;100528.31;;;30.59;66.28
36798;BME280;22748;8.426;99.512;2022-08-03T12:26:08;100529.78;;;30.54;66.08
36798;BME280;22748;8.426;99.512;2022-08-03T12:28:47;100533.09;;;30.57;66.40
36798;BME280;22748;8.426;99.512;2022-08-03T12:31:17;100536.84;;;30.55;66.46
36798;BME280;22748;8.426;99.512;2022-08-03T12:34:06;100542.66;;;30.52;66.40
36798;BME280;22748;8.426;99.512;2022-08-03T12:36:50;100546.41;;;30.51;66.64
36798;BME280;22748;8.426;99.512;2022-08-03T12:39:24;100556.75;;;30.54;66.39
36798;BME280;22748;8.426;99.512;2022-08-03T12:41:58;100562.34;;;30.53;66.57
36798;BME280;22748;8.426;99.512;2022-08-03T12:44:32;100559.66;;;30.53;66.70
36798;BME280;22748;8.426;99.512;2022-08-03T12:47:04;100570.44;;;30.53;66.58
36798;BME280;22748;8.426;99.512;2022-08-03T12:49:48;100571.72;;;30.50;66.12
36798;BME280;22748;8.426;99.512;2022-08-03T12:52:21;100583.34;;;30.51;66.30
36798;BME280;22748;8.426;99.512;2022-08-03T12:54:56;100585.19;;;30.50;66.07
36798;BME280;22748;8.426;99.512;2022-08-03T12:57:40;100602.84;;;30.46;65.85
36798;BME280;22748;8.426;99.512;2022-08-03T13:00:14;100598.72;;;30.44;65.92
36798;BME280;22748;8.426;99.512;2022-08-03T13:02:59;100603.75;;;30.40;65.84
36798;BME280;22748;8.426;99.512;2022-08-03T13:05:42;100607.25;;;30.41;66.16
36798;BME280;22748;8.426;99.512;2022-08-03T13:08:19;100616.00;;;30.36;66.31
36798;BME280;22748;8.426;99.512;2022-08-03T13:10:50;100618.69;;;30.36;66.21
36798;BME280;22748;8.426;99.512;2022-08-03T13:13:39;100609.19;;;30.33;65.94
36798;BME280;22748;8.426;99.512;2022-08-03T13:16:09;100611.63;;;30.35;66.21
36798;BME280;22748;8.426;99.512;2022-08-03T13:18:40;100611.63;;;30.35;66.13
36798;BME280;22748;8.426;99.512;2022-08-03T13:21:17;100625.72;;;30.37;66.54
36798;BME280;22748;8.426;99.512;2022-08-03T13:23:48;100632.97;;;30.37;66.09
36798;BME280;22748;8.426;99.512;2022-08-03T13:26:18;100640.00;;;30.38;66.25
36798;BME280;22748;8.426;99.512;2022-08-03T13:28:49;100629.22;;;30.38;66.37
36798;BME280;22748;8.426;99.512;2022-08-03T13:31:23;100634.84;;;30.36;65.89
36798;BME280;22748;8.426;99.512;2022-08-03T13:33:56;100633.19;;;30.35;65.88
36798;BME280;22748;8.426;99.512;2022-08-03T13:36:41;100635.28;;;30.33;66.13